Nearby METAR Reports

 

KPAE - Everett, Washington, USA
Distance from station: NW 15mi, 25km
Updated: 07/25/2021 10:53am
Clear
Clear
 Wind from varies
Wind: varies 6 mph , 9 km/h
Temperature: 68°F , 20°C
Dew Point: 54°F , 12°C
Humidity: 60%
Barometer: 30.12 inHg , 1020 hPa
Clouds: Clear
Visibility: 10 miles , 16 km
2021/07/25 17:53 KPAE 251753Z VRB05KT 10SM CLR 20/12 A3012 RMK AO2 SLP196 T02000122 10200 20139 58002
KBFI - Seattle/Boeing, Washington, USA
Distance from station: SW 20mi, 31km
Updated: 07/25/2021 10:53am
Clear
Clear
 Wind from varies
Wind: varies 6 mph , 9 km/h
Temperature: 72°F , 22°C
Dew Point: 55°F , 13°C
Humidity: 57%
Barometer: 30.08 inHg , 1018.6 hPa
Clouds: Clear
Visibility: 10 miles , 16 km
2021/07/25 17:53 KBFI 251753Z VRB05KT 10SM CLR 22/13 A3008 RMK AO2 SLP186 T02220133 10222 20161 58005
KSEA - Seattle/Metro, Washington, USA
Distance from station: SSW 25mi, 41km
Updated: 07/25/2021 10:53am
Few Clouds
Few Clouds
 Wind from WNW
Wind: WNW 8 mph , 13 km/h
Temperature: 70°F , 21°C
Dew Point: 55°F , 13°C
Humidity: 60%
Barometer: 30.10 inHg , 1019.3 hPa
Clouds: Few Clouds
Visibility: 10 miles , 16 km
Cloud details: Few Clouds 3000 ft
2021/07/25 17:53 KSEA 251753Z 29007KT 10SM FEW030 21/13 A3010 RMK AO2 SLP195 T02110133 10217 20156 58004
 
KAWO - Arlington Muni, Washington, USA
Distance from station: NNW 28mi, 46km
Updated: 07/25/2021 10:56am
Few Clouds
Few Clouds
 Wind from NW
Wind: NW 8 mph , 13 km/h
Temperature: 70°F , 21°C
Dew Point: 54°F , 12°C
Humidity: 57%
Barometer: 30.11 inHg , 1019.6 hPa
Clouds: Few Clouds
Visibility: 7 miles , 11 km
Cloud details: Few Clouds 200 ft
2021/07/25 17:56 KAWO 251756Z AUTO 31007KT 270V330 7SM FEW002 21/12 A3011 RMK AO2 SLP199 T02060122 10206 20122 58005
KPWT - Bremerton Ntnl, Washington, USA
Distance from station: WSW 38mi, 61km
Updated: 07/25/2021 10:56am
Clear
Clear
 Wind from N
Wind: N 8 mph , 13 km/h
Temperature: 75°F , 24°C
Dew Point: 57°F , 14°C
Humidity: 54%
Barometer: 30.10 inHg , 1019.3 hPa
Clouds: Clear
Visibility: 10 miles , 16 km
2021/07/25 17:56 KPWT 251756Z AUTO 36007KT 10SM CLR 24/14 A3010 RMK AO2 SLP194 6//// T02390139 10239 20111
KTIW - Tacoma, Washington, USA
Distance from station: SW 43mi, 69km
Updated: 07/25/2021 10:53am
Clear
Clear
 Wind from calm
Wind: Calm
Temperature: 70°F , 21°C
Dew Point: 55°F , 13°C
Humidity: 60%
Barometer: 30.09 inHg , 1019 hPa
Clouds: Clear
Visibility: 10 miles , 16 km
2021/07/25 17:53 KTIW 251753Z 00000KT 10SM CLR 21/13 A3009 RMK AO2 SLP187 T02060133 10206 20133 58007
 
KPLU - Puyallup/Thun, Washington, USA
Distance from station: SSW 47mi, 76km
Updated: 07/25/2021 11:15am
Clear
Clear
 Wind from calm
Wind: Calm
Temperature: 77°F , 25°C
Dew Point: 55°F , 13°C
Humidity: 47%
Barometer: 30.09 inHg , 1019 hPa
Clouds: Clear
Visibility: 10 miles , 16 km
2021/07/25 18:15 KPLU 251815Z AUTO 00000KT 10SM CLR 25/13 A3009 RMK AO2
KSMP - Stampede Pass, Washington, USA
Distance from station: SE 47mi, 76km
Updated: 07/25/2021 10:56am
Clear
Clear
 
Temperature: 66°F , 19°C
Dew Point: 52°F , 11°C
Humidity: 60%
Barometer: 30.17 inHg , 1021.7 hPa
Clouds: Clear
Visibility: 10 miles , 16 km
2021/07/25 17:56 KSMP 251756Z AUTO 10SM CLR 19/11 A3017 RMK AO2 SLP191 T01940106 10194 20122 58001 $
KNUW - Whidbey Is. Nas, Washington, USA
Distance from station: NW 49mi, 79km
Updated: 07/25/2021 10:56am
Few Clouds
Few Clouds
 Wind from WSW
Wind: WSW 10 mph , 17 km/h
Temperature: 63°F , 17°C
Dew Point: 54°F , 12°C
Humidity: 73%
Barometer: 30.14 inHg , 1020.7 hPa
Clouds: Few Clouds
Visibility: 10 miles , 16 km
Cloud details: Few Clouds 1000 ft
2021/07/25 17:56 KNUW 251756Z 24009KT 10SM FEW010 17/12 A3014 RMK AO2 SLP206 T01720122 10172 20133 58001
 
KBVS - Burlington/Mt V, Washington, USA
Distance from station: NNW 51mi, 83km
Updated: 07/25/2021 11:15am
Haze, Clear
Haze, Clear
 Wind from S
Wind: S 6 mph , 9 km/h, Gust: 15 mph , 24 km/h
Temperature: 72°F , 22°C
Dew Point: 55°F , 13°C
Humidity: 57%
Barometer: 30.10 inHg , 1019.3 hPa
Summary: Haze
Clouds: Clear
Visibility: 6 miles , 10 km
2021/07/25 18:15 KBVS 251815Z AUTO 17005G13KT 6SM HZ CLR 22/13 A3010 RMK A01
KSHN - Shelton, Washington, USA
Distance from station: SW 63mi, 101km
Updated: 07/25/2021 10:53am
Clear
Clear
 Wind from calm
Wind: Calm
Temperature: 73°F , 23°C
Dew Point: 55°F , 13°C
Humidity: 53%
Barometer: 30.07 inHg , 1018.3 hPa
Clouds: Clear
Visibility: 10 miles , 16 km
2021/07/25 17:53 KSHN 251753Z AUTO 00000KT 10SM CLR 23/13 A3007 RMK AO2 SLP182 T02280133 10228 20122 58009
KOLM - Olympia, Washington, USA
Distance from station: SW 68mi, 110km
Updated: 07/25/2021 10:54am
Clear
Clear
 Wind from varies
Wind: varies 3 mph , 6 km/h
Temperature: 72°F , 22°C
Dew Point: 57°F , 14°C
Humidity: 61%
Barometer: 30.09 inHg , 1019 hPa
Clouds: Clear
Visibility: 10 miles , 16 km
2021/07/25 17:54 KOLM 251754Z VRB03KT 10SM CLR 22/14 A3009 RMK AO2 SLP187 T02220144 10222 20122 58009
 
KCLM - Port Angeles, Washington, USA
Distance from station: WNW 72mi, 115km
Updated: 07/25/2021 10:53am
Clear
Clear
 Wind from NNW
Wind: NNW 8 mph , 13 km/h
Temperature: 64°F , 18°C
Dew Point: 54°F , 12°C
Humidity: 68%
Barometer: 30.11 inHg , 1019.6 hPa
Clouds: Clear
Visibility: 10 miles , 16 km
2021/07/25 17:53 KCLM 251753Z AUTO 33007KT 290V360 10SM CLR 18/12 A3011 RMK AO2 SLP197 T01780117 10183 20133 58002
CWYJ - Victoria Univ, British Columbia, Canada
Distance from station: NW 75mi, 121km
Updated: 07/25/2021 11:00am

 Wind from SSW
Wind: SSW 5 mph , 7 km/h
Temperature: 72°F , 22°C
Dew Point: 57°F , 14°C
Humidity: 61%
2021/07/25 18:00 CWYJ 251800Z AUTO 20004KT 22/14 RMK AO1 SLP187 T02220139 58002
KBLI - Bellingham, Washington, USA
Distance from station: NNW 75mi, 121km
Updated: 07/25/2021 10:53am
Clear
Clear
 Wind from SSW
Wind: SSW 13 mph , 20 km/h, Gust: 25 mph , 41 km/h
Temperature: 64°F , 18°C
Dew Point: 57°F , 14°C
Humidity: 78%
Barometer: 30.08 inHg , 1018.6 hPa
Clouds: Clear
Visibility: 10 miles , 16 km
2021/07/25 17:53 KBLI 251753Z 20011G22KT 10SM CLR 18/14 A3008 RMK AO2 SLP192 T01780144 10178 20156 50000